Watauga, Tennessee
Current Conditions -  °F | °C
As of 4:15 AM on Thursday 27 Nov 2014 (Local Time) from K0A9 Reporting Station
Light Snow Light Snow  
Wind Chill: 26°   Ceiling: 800
Heat Index: 32°   Visibility: 8mi
Dew Point: 30°   Wind: 7mph
Humidity: 93%   Direction: 260°W
Pressure: 29.99"   Gusts: NA
Location:  36.37°N, 82.3°W
Report Text: K0A9 270915Z AUTO 26006KT 8SM -SN OVC008 00/M01 A2999 RMK
Loading
Personal Weather Stations






























Interactive Weather Map New forecast layout! Learn more

10-Day Weather Forecast

Advertisements
Track Severe Weather on mobile